createdAt,value
2023-05-16T00:02:19.552Z,11.57
2023-05-16T00:04:41.108Z,11.83
2023-05-16T00:07:02.581Z,10.90
2023-05-16T00:09:23.839Z,11.27
2023-05-16T00:11:45.535Z,11.03
2023-05-16T00:14:08.251Z,10.80
2023-05-16T00:16:29.992Z,10.97
2023-05-16T00:18:52.722Z,10.33
2023-05-16T00:21:14.210Z,10.53
2023-05-16T00:23:35.784Z,10.10
2023-05-16T00:25:57.285Z,10.97
2023-05-16T00:28:18.638Z,11.00
2023-05-16T00:30:41.590Z,12.13
2023-05-16T00:33:03.055Z,11.40
2023-05-16T00:35:24.341Z,10.77
2023-05-16T00:37:45.860Z,10.80
2023-05-16T00:40:07.717Z,11.60
2023-05-16T00:42:28.930Z,11.57
2023-05-16T00:44:50.325Z,10.63
2023-05-16T00:47:13.052Z,10.97
2023-05-16T00:49:34.492Z,11.43
2023-05-16T00:51:55.723Z,9.67
2023-05-16T00:54:16.958Z,10.80
2023-05-16T00:56:38.346Z,10.47
2023-05-16T00:58:59.915Z,11.00
2023-05-16T01:01:24.715Z,9.40
2023-05-16T01:03:48.311Z,9.47
2023-05-16T01:06:09.675Z,9.70
2023-05-16T01:08:30.933Z,9.70
2023-05-16T01:10:55.829Z,10.50
2023-05-16T01:13:19.389Z,11.43
2023-05-16T01:15:45.363Z,11.23
2023-05-16T01:18:09.499Z,11.17
2023-05-16T01:20:34.848Z,10.67
2023-05-16T01:23:04.275Z,10.40
2023-05-16T01:25:32.462Z,10.73
2023-05-16T01:27:56.468Z,10.63
2023-05-16T01:30:18.737Z,11.27
2023-05-16T01:32:40.317Z,10.83
2023-05-16T01:35:01.650Z,11.50
2023-05-16T01:37:35.410Z,12.90
2023-05-16T01:39:58.302Z,12.63
2023-05-16T01:42:20.224Z,13.57
2023-05-16T01:44:45.647Z,12.67
2023-05-16T01:47:10.735Z,12.33
2023-05-16T01:49:36.009Z,12.00
2023-05-16T01:52:01.282Z,11.50
2023-05-16T01:54:25.828Z,11.80
2023-05-16T01:56:49.474Z,11.60
2023-05-16T01:59:11.607Z,11.10
2023-05-16T02:01:34.101Z,11.63
2023-05-16T02:03:55.267Z,12.07
2023-05-16T02:06:16.342Z,11.67
2023-05-16T02:08:37.835Z,10.83
2023-05-16T02:10:59.194Z,10.77
2023-05-16T02:13:20.595Z,11.27
2023-05-16T02:15:41.941Z,10.90
2023-05-16T02:18:05.173Z,11.27
2023-05-16T02:20:26.540Z,12.17
2023-05-16T02:22:49.965Z,12.70
2023-05-16T02:25:11.221Z,12.10
2023-05-16T02:27:33.339Z,12.40
2023-05-16T02:29:54.651Z,11.53
2023-05-16T02:32:15.945Z,12.67
2023-05-16T02:34:38.609Z,12.57
2023-05-16T02:36:59.757Z,11.77
2023-05-16T02:39:21.013Z,11.30
2023-05-16T02:41:42.240Z,11.87
2023-05-16T02:44:03.634Z,12.27
2023-05-16T02:46:26.306Z,11.63
2023-05-16T02:48:47.627Z,11.67
2023-05-16T02:51:10.453Z,11.63
2023-05-16T02:53:31.750Z,11.27
2023-05-16T02:55:52.854Z,11.17
2023-05-16T02:58:14.070Z,12.50
2023-05-16T03:00:35.341Z,12.37
2023-05-16T03:02:57.100Z,11.67
2023-05-16T03:05:18.983Z,11.93
2023-05-16T03:07:42.040Z,12.73
2023-05-16T03:10:03.473Z,12.27
2023-05-16T03:12:24.715Z,11.90
2023-05-16T03:14:46.073Z,11.60
2023-05-16T03:17:07.470Z,11.80
2023-05-16T03:19:28.894Z,12.67
2023-05-16T03:21:50.282Z,11.57
2023-05-16T03:24:13.206Z,10.40
2023-05-16T03:26:34.065Z,10.77
2023-05-16T03:28:55.388Z,10.73
2023-05-16T03:31:16.801Z,11.53
2023-05-16T03:33:37.907Z,11.37
2023-05-16T03:35:59.167Z,10.83
2023-05-16T03:38:20.489Z,11.63
2023-05-16T03:40:43.331Z,10.73
2023-05-16T03:43:04.412Z,12.47
2023-05-16T03:45:25.976Z,11.33
2023-05-16T03:47:47.882Z,10.87
2023-05-16T03:50:09.833Z,11.60
2023-05-16T03:52:30.724Z,10.77
2023-05-16T03:54:52.137Z,11.13
2023-05-16T03:57:14.846Z,10.00
2023-05-16T03:59:36.455Z,10.57
2023-05-16T04:01:57.677Z,9.90
2023-05-16T04:04:19.026Z,10.30
2023-05-16T04:06:40.643Z,11.50
2023-05-16T04:09:01.592Z,10.10
2023-05-16T04:11:22.651Z,10.73
2023-05-16T04:13:45.297Z,10.77
2023-05-16T04:16:07.161Z,9.73
2023-05-16T04:18:28.131Z,12.23
2023-05-16T04:20:50.140Z,10.67
2023-05-16T04:23:12.977Z,11.50
2023-05-16T04:25:34.439Z,11.07
2023-05-16T04:27:55.725Z,12.27
2023-05-16T04:30:18.552Z,12.83
2023-05-16T04:32:40.515Z,13.17
2023-05-16T04:35:01.929Z,14.80
2023-05-16T04:37:23.010Z,11.93
2023-05-16T04:39:44.240Z,12.30
2023-05-16T04:42:05.825Z,12.10
2023-05-16T04:44:26.897Z,12.30
2023-05-16T04:46:49.571Z,14.07
2023-05-16T04:49:11.917Z,13.20
2023-05-16T04:51:33.840Z,12.57
2023-05-16T04:53:54.734Z,11.63
2023-05-16T04:56:16.066Z,11.83
2023-05-16T04:58:37.702Z,12.27
2023-05-16T05:03:24.096Z,11.93
2023-05-16T05:05:46.083Z,12.43
2023-05-16T05:08:07.687Z,11.60
2023-05-16T05:10:28.716Z,12.60
2023-05-16T05:12:49.731Z,12.73
2023-05-16T05:15:11.007Z,11.97
2023-05-16T05:17:32.107Z,12.53
2023-05-16T05:19:54.337Z,12.27
2023-05-16T05:22:16.122Z,12.13
2023-05-16T05:24:37.268Z,13.53
2023-05-16T05:26:58.647Z,11.97
2023-05-16T05:29:19.967Z,12.93
2023-05-16T05:31:41.324Z,13.07
2023-05-16T05:34:02.495Z,13.80
2023-05-16T05:36:25.192Z,14.10
2023-05-16T05:38:46.475Z,14.40
2023-05-16T05:41:07.833Z,13.97
2023-05-16T05:43:29.223Z,16.23
2023-05-16T05:45:50.446Z,14.53
2023-05-16T05:48:12.410Z,18.03
2023-05-16T05:50:33.932Z,21.90
2023-05-16T05:52:57.192Z,23.97
2023-05-16T05:55:18.426Z,24.90
2023-05-16T05:57:40.223Z,23.97
2023-05-16T06:00:01.174Z,27.30
2023-05-16T06:02:22.713Z,26.47
2023-05-16T06:04:45.304Z,29.37
2023-05-16T06:07:06.468Z,29.37
2023-05-16T06:09:28.930Z,26.57
2023-05-16T06:11:50.712Z,26.00
2023-05-16T06:14:12.449Z,25.97
2023-05-16T06:16:33.976Z,29.50
2023-05-16T06:18:55.022Z,28.90
2023-05-16T06:21:16.377Z,31.23
2023-05-16T06:23:37.712Z,30.20
2023-05-16T06:26:00.851Z,30.57
2023-05-16T06:28:21.749Z,35.40
2023-05-16T06:30:42.946Z,33.40
2023-05-16T06:33:04.371Z,36.13
2023-05-16T06:35:26.139Z,36.27
2023-05-16T06:37:47.562Z,34.80
2023-05-16T06:40:09.353Z,32.83
2023-05-16T06:42:32.122Z,35.40
2023-05-16T06:44:53.597Z,35.33
2023-05-16T06:47:15.089Z,36.17
2023-05-16T06:49:36.549Z,36.13
2023-05-16T06:51:57.962Z,34.40
2023-05-16T06:54:19.318Z,34.67
2023-05-16T06:56:40.074Z,33.47
2023-05-16T06:59:02.746Z,32.80
2023-05-16T07:01:23.649Z,34.60
2023-05-16T07:03:45.037Z,31.77
2023-05-16T07:06:06.130Z,30.97
2023-05-16T07:08:27.366Z,29.53
2023-05-16T07:10:48.470Z,30.17
2023-05-16T07:13:09.764Z,28.73
2023-05-16T07:15:32.127Z,27.00
2023-05-16T07:17:53.679Z,28.13
2023-05-16T07:20:15.322Z,27.47
2023-05-16T07:22:36.745Z,26.33
2023-05-16T07:25:00.936Z,26.13
2023-05-16T07:27:23.590Z,27.30
2023-05-16T07:29:44.779Z,26.93
2023-05-16T07:32:08.015Z,26.33
2023-05-16T07:34:29.176Z,24.73
2023-05-16T07:36:50.495Z,27.00
2023-05-16T07:39:11.693Z,29.83
2023-05-16T07:41:33.237Z,25.73
2023-05-16T07:43:54.548Z,26.23
2023-05-16T07:46:15.966Z,24.80
2023-05-16T07:48:38.697Z,24.33
2023-05-16T07:50:59.992Z,22.93
2023-05-16T07:53:21.730Z,22.27
2023-05-16T07:55:42.741Z,23.37
2023-05-16T07:58:04.600Z,22.77
2023-05-16T08:00:25.796Z,21.07
2023-05-16T08:02:47.294Z,23.67
2023-05-16T08:05:10.550Z,21.23
2023-05-16T08:07:31.624Z,19.33
2023-05-16T08:09:52.832Z,19.43
2023-05-16T08:12:13.768Z,19.73
2023-05-16T08:14:35.007Z,18.87
2023-05-16T08:16:56.146Z,18.77
2023-05-16T08:19:17.461Z,18.53
2023-05-16T08:21:40.820Z,15.57
2023-05-16T08:24:02.009Z,16.50
2023-05-16T08:26:23.434Z,15.43
2023-05-16T08:28:45.149Z,15.87
2023-05-16T08:31:08.726Z,16.77
2023-05-16T08:33:30.095Z,15.47
2023-05-16T08:35:52.797Z,17.90
2023-05-16T08:38:15.618Z,16.57
2023-05-16T08:40:36.923Z,17.10
2023-05-16T08:42:58.384Z,16.67
2023-05-16T08:45:20.177Z,16.40
2023-05-16T08:47:42.250Z,16.53
2023-05-16T08:50:04.466Z,17.73
2023-05-16T08:52:28.830Z,17.10
2023-05-16T08:55:05.672Z,17.83
2023-05-16T08:57:30.215Z,18.00
2023-05-16T08:59:54.192Z,17.17
2023-05-16T09:02:15.399Z,17.13
2023-05-16T09:04:37.724Z,17.53
2023-05-16T09:06:59.204Z,17.70
2023-05-16T09:09:20.509Z,16.43
2023-05-16T09:11:43.352Z,17.93
2023-05-16T09:14:05.521Z,17.47
2023-05-16T09:16:26.984Z,17.40
2023-05-16T09:18:54.124Z,17.73
2023-05-16T09:21:15.863Z,19.23
2023-05-16T09:23:37.446Z,17.87
2023-05-16T09:25:59.036Z,22.30
2023-05-16T09:28:22.958Z,18.83
2023-05-16T09:30:47.234Z,19.90
2023-05-16T09:33:09.079Z,21.07
2023-05-16T09:35:44.200Z,21.30
2023-05-16T09:38:06.585Z,19.97
2023-05-16T09:40:27.910Z,21.33
2023-05-16T09:42:49.039Z,23.33
2023-05-16T09:45:14.903Z,21.47
2023-05-16T09:47:36.169Z,21.90
2023-05-16T09:49:57.506Z,19.10
2023-05-16T09:52:18.910Z,18.73
2023-05-16T09:54:40.358Z,19.17
2023-05-16T09:57:03.098Z,23.10
2023-05-16T09:59:24.469Z,20.77
2023-05-16T10:01:49.090Z,19.17
2023-05-16T10:04:14.165Z,20.80
2023-05-16T10:06:35.382Z,20.20
2023-05-16T10:08:56.633Z,20.53
2023-05-16T10:11:19.239Z,19.73
2023-05-16T10:13:40.500Z,21.70
2023-05-16T10:16:03.133Z,18.80
2023-05-16T10:18:30.114Z,19.30
2023-05-16T10:20:54.238Z,20.67
2023-05-16T10:23:17.625Z,19.10
2023-05-16T10:25:42.055Z,19.93
2023-05-16T10:28:04.102Z,19.53
2023-05-16T10:30:27.061Z,22.23
2023-05-16T10:32:48.980Z,20.60
2023-05-16T10:35:11.937Z,20.20
2023-05-16T10:37:33.408Z,20.30
2023-05-16T10:39:54.803Z,18.70
2023-05-16T10:42:18.336Z,18.03
2023-05-16T10:44:40.483Z,17.90
2023-05-16T10:47:04.771Z,17.73
2023-05-16T10:49:27.654Z,18.83
2023-05-16T10:51:54.321Z,19.03
2023-05-16T10:54:18.269Z,18.90
2023-05-16T10:56:39.436Z,18.47
2023-05-16T10:59:00.759Z,19.13
2023-05-16T11:01:23.761Z,18.67
2023-05-16T11:04:04.167Z,18.23
2023-05-16T11:06:26.149Z,19.90
2023-05-16T11:09:05.355Z,19.67
2023-05-16T11:11:51.025Z,21.80
2023-05-16T11:14:18.858Z,21.80
2023-05-16T11:16:40.291Z,20.07
2023-05-16T11:19:06.631Z,20.50
2023-05-16T11:22:02.842Z,21.07
2023-05-16T11:24:31.855Z,20.80
2023-05-16T11:26:54.513Z,21.23
2023-05-16T11:29:15.923Z,19.87
2023-05-16T11:31:37.220Z,20.73
2023-05-16T11:33:58.574Z,21.33
2023-05-16T11:36:19.878Z,20.67
2023-05-16T11:38:43.426Z,19.80
2023-05-16T11:41:10.153Z,20.97
2023-05-16T11:43:37.791Z,20.77
2023-05-16T11:45:59.628Z,20.67
2023-05-16T11:48:32.659Z,19.20
2023-05-16T11:50:56.897Z,19.30
2023-05-16T11:53:18.212Z,19.87
2023-05-16T11:55:42.781Z,20.20
2023-05-16T11:58:06.572Z,19.83
2023-05-16T12:00:28.253Z,20.43
2023-05-16T12:02:50.146Z,19.43
2023-05-16T12:05:13.006Z,19.27
2023-05-16T12:07:34.376Z,19.83
2023-05-16T12:09:55.582Z,23.13
2023-05-16T12:12:16.697Z,19.87
2023-05-16T12:14:39.373Z,19.50
2023-05-16T12:17:00.663Z,21.13
2023-05-16T12:19:22.524Z,18.90
2023-05-16T12:21:44.021Z,20.63
2023-05-16T12:24:05.336Z,17.57
2023-05-16T12:26:27.293Z,17.17
2023-05-16T12:28:56.342Z,17.30
2023-05-16T12:31:31.190Z,16.67
2023-05-16T12:33:54.185Z,15.73
2023-05-16T12:36:16.386Z,17.83
2023-05-16T12:38:37.573Z,17.60
2023-05-16T12:40:59.469Z,15.77
2023-05-16T12:43:21.688Z,14.87
2023-05-16T12:45:43.380Z,15.87
2023-05-16T12:48:12.922Z,14.43
2023-05-16T12:50:34.427Z,14.27
2023-05-16T12:52:59.235Z,15.23
2023-05-16T12:55:24.218Z,14.77
2023-05-16T12:57:47.546Z,17.20
2023-05-16T13:00:11.961Z,18.90
2023-05-16T13:02:33.516Z,16.73
2023-05-16T13:04:55.966Z,20.57
2023-05-16T13:07:17.999Z,15.10
2023-05-16T13:09:39.327Z,12.43
2023-05-16T13:12:00.772Z,36.07
2023-05-16T13:14:23.338Z,13.60
2023-05-16T13:16:45.622Z,12.50
2023-05-16T13:19:06.745Z,12.50
2023-05-16T13:21:31.759Z,10.60
2023-05-16T13:23:53.259Z,10.83
2023-05-16T13:26:14.466Z,10.40
2023-05-16T13:28:36.615Z,10.30
2023-05-16T13:30:59.621Z,10.20
2023-05-16T13:33:22.753Z,9.73
2023-05-16T13:35:46.414Z,8.77
2023-05-16T13:38:09.296Z,7.47
2023-05-16T13:40:30.642Z,8.70
2023-05-16T13:42:51.730Z,11.03
2023-05-16T13:45:13.470Z,7.67
2023-05-16T13:47:34.853Z,7.20
2023-05-16T13:49:56.044Z,7.63
2023-05-16T13:52:17.262Z,7.57
2023-05-16T13:54:41.398Z,7.23
2023-05-16T13:57:03.547Z,6.30
2023-05-16T13:59:44.714Z,6.57
2023-05-16T14:02:07.538Z,6.53
2023-05-16T14:04:28.806Z,5.80
2023-05-16T14:06:50.157Z,5.77
2023-05-16T14:09:13.008Z,5.73
2023-05-16T14:11:35.793Z,5.90
2023-05-16T14:13:57.317Z,6.07
2023-05-16T14:16:18.862Z,6.00
2023-05-16T14:18:39.953Z,5.90
2023-05-16T14:21:02.308Z,7.87
2023-05-16T14:23:23.827Z,6.27
2023-05-16T14:25:44.977Z,5.70
2023-05-16T14:28:07.558Z,6.30
2023-05-16T14:30:29.497Z,5.00
2023-05-16T14:32:50.666Z,5.00
2023-05-16T14:35:12.096Z,5.10
2023-05-16T14:37:33.516Z,5.50
2023-05-16T14:39:55.186Z,4.93
2023-05-16T14:42:16.098Z,5.10
2023-05-16T14:44:38.675Z,4.60
2023-05-16T14:46:59.888Z,5.30
2023-05-16T14:49:21.063Z,5.67
2023-05-16T14:51:44.931Z,5.67
2023-05-16T14:54:06.510Z,5.40
2023-05-16T14:56:29.205Z,4.97
2023-05-16T14:58:50.887Z,4.70
2023-05-16T15:01:15.213Z,5.17
2023-05-16T15:03:53.689Z,4.63
2023-05-16T15:06:16.293Z,5.37
2023-05-16T15:08:38.428Z,3.87
2023-05-16T15:10:59.313Z,4.40
2023-05-16T15:13:20.537Z,4.10
2023-05-16T15:15:42.637Z,3.93
2023-05-16T15:18:05.524Z,4.20
2023-05-16T15:20:28.101Z,4.20
2023-05-16T15:22:49.820Z,4.43
2023-05-16T15:25:11.988Z,4.30
2023-05-16T15:27:32.986Z,4.33
2023-05-16T15:29:54.217Z,4.17
2023-05-16T15:32:18.281Z,4.17
2023-05-16T15:34:40.716Z,4.20
2023-05-16T15:37:01.895Z,3.90
2023-05-16T15:39:25.799Z,3.70
2023-05-16T15:42:08.421Z,5.83
2023-05-16T15:44:28.768Z,4.23
2023-05-16T15:46:50.148Z,3.70
2023-05-16T15:49:12.805Z,3.73
2023-05-16T15:51:35.934Z,3.60
2023-05-16T15:53:57.029Z,3.40
2023-05-16T15:56:18.278Z,3.27
2023-05-16T15:58:39.498Z,3.43
2023-05-16T16:01:00.790Z,3.73
2023-05-16T16:03:22.236Z,3.07
2023-05-16T16:05:43.422Z,3.40
2023-05-16T16:08:06.259Z,3.00
2023-05-16T16:10:27.499Z,3.47
2023-05-16T16:12:59.065Z,5.00
2023-05-16T16:15:19.966Z,3.13
2023-05-16T16:17:41.185Z,4.50
2023-05-16T16:20:02.355Z,4.17
2023-05-16T16:22:23.857Z,3.50
2023-05-16T16:24:46.614Z,3.23
2023-05-16T16:27:07.886Z,3.13
2023-05-16T16:29:29.166Z,3.53
2023-05-16T16:31:50.744Z,5.70
2023-05-16T16:34:11.751Z,5.60
2023-05-16T16:36:33.233Z,3.90
2023-05-16T16:38:54.621Z,6.10
2023-05-16T16:41:17.992Z,3.63
2023-05-16T16:43:41.274Z,3.60
2023-05-16T16:46:02.559Z,3.43
2023-05-16T16:48:23.679Z,3.63
2023-05-16T16:50:44.899Z,3.73
2023-05-16T16:53:06.158Z,3.03
2023-05-16T16:55:28.079Z,3.57
2023-05-16T16:57:51.078Z,3.17
2023-05-16T17:00:14.091Z,4.07
2023-05-16T17:02:35.586Z,2.90
2023-05-16T17:04:56.618Z,4.83
2023-05-16T17:07:17.837Z,2.90
2023-05-16T17:09:42.091Z,4.97
2023-05-16T17:12:07.922Z,2.90
2023-05-16T17:14:31.021Z,4.73
2023-05-16T17:16:52.381Z,4.13
2023-05-16T17:19:13.565Z,3.30
2023-05-16T17:21:36.895Z,4.00
2023-05-16T17:23:58.654Z,5.07
2023-05-16T17:26:19.980Z,4.47
2023-05-16T17:28:41.690Z,8.10
2023-05-16T17:31:04.416Z,4.67
2023-05-16T17:33:26.045Z,4.73
2023-05-16T17:35:47.873Z,6.10
2023-05-16T17:38:10.227Z,3.67
2023-05-16T17:40:31.249Z,4.30
2023-05-16T17:42:52.511Z,4.37
2023-05-16T17:45:14.817Z,4.77
2023-05-16T17:47:37.915Z,4.67
2023-05-16T17:49:59.208Z,3.07
2023-05-16T17:52:22.065Z,6.23
2023-05-16T17:54:43.616Z,5.93
2023-05-16T17:57:06.030Z,6.83
2023-05-16T17:59:28.295Z,2.77
2023-05-16T18:01:49.551Z,7.03
2023-05-16T18:04:12.370Z,5.93
2023-05-16T18:06:33.860Z,7.37
2023-05-16T18:08:54.839Z,5.53
2023-05-16T18:11:16.381Z,3.83
2023-05-16T18:13:37.487Z,5.27
2023-05-16T18:15:58.952Z,4.83
2023-05-16T18:18:20.224Z,6.10
2023-05-16T18:20:43.005Z,4.73
2023-05-16T18:23:04.373Z,3.30
2023-05-16T18:25:26.295Z,3.30
2023-05-16T18:27:47.870Z,3.63
2023-05-16T18:30:10.022Z,2.97
2023-05-16T18:32:31.565Z,3.97
2023-05-16T18:34:52.675Z,4.37
2023-05-16T18:37:15.255Z,4.00
2023-05-16T18:39:37.679Z,4.80
2023-05-16T18:41:59.219Z,3.77
2023-05-16T18:44:20.575Z,5.10
2023-05-16T18:46:41.951Z,4.93
2023-05-16T18:49:03.345Z,7.27
2023-05-16T18:51:24.690Z,4.63
2023-05-16T18:53:47.423Z,5.17
2023-05-16T18:56:08.684Z,2.83
2023-05-16T18:58:30.111Z,3.03
2023-05-16T19:00:51.585Z,2.50
2023-05-16T19:03:13.457Z,3.03
2023-05-16T19:05:35.000Z,5.10
2023-05-16T19:07:56.613Z,5.53
2023-05-16T19:10:19.355Z,3.03
2023-05-16T19:12:40.310Z,4.20
2023-05-16T19:15:01.583Z,3.57
2023-05-16T19:17:23.134Z,3.53
2023-05-16T19:19:44.556Z,5.07
2023-05-16T19:22:06.185Z,4.17
2023-05-16T19:24:27.778Z,4.03
2023-05-16T19:26:50.270Z,4.63
2023-05-16T19:29:11.747Z,4.10
2023-05-16T19:31:32.866Z,4.20
2023-05-16T19:33:54.139Z,4.17
2023-05-16T19:36:15.461Z,4.43
2023-05-16T19:38:36.809Z,5.27
2023-05-16T19:41:00.062Z,4.70
2023-05-16T19:43:22.884Z,3.97
2023-05-16T19:45:44.113Z,5.87
2023-05-16T19:48:05.703Z,5.43
2023-05-16T19:50:27.209Z,4.67
2023-05-16T19:52:48.712Z,7.37
2023-05-16T19:55:10.619Z,3.20
2023-05-16T19:57:31.717Z,5.37
2023-05-16T19:59:54.301Z,6.93
2023-05-16T20:02:16.073Z,4.67
2023-05-16T20:04:37.274Z,3.90
2023-05-16T20:06:58.828Z,5.03
2023-05-16T20:09:20.026Z,6.57
2023-05-16T20:11:41.213Z,6.57
2023-05-16T20:14:02.514Z,6.37
2023-05-16T20:16:26.593Z,8.30
2023-05-16T20:18:48.320Z,4.67
2023-05-16T20:21:09.220Z,6.70
2023-05-16T20:23:30.356Z,3.37
2023-05-16T20:25:51.772Z,3.97
2023-05-16T20:28:13.111Z,3.63
2023-05-16T20:30:34.629Z,5.73
2023-05-16T20:32:57.627Z,3.20
2023-05-16T20:35:19.208Z,4.37
2023-05-16T20:37:41.677Z,4.07
2023-05-16T20:40:03.088Z,5.43
2023-05-16T20:42:24.416Z,4.50
2023-05-16T20:44:45.671Z,3.17
2023-05-16T20:47:07.371Z,4.60
2023-05-16T20:49:29.581Z,5.33
2023-05-16T20:51:50.759Z,2.87
2023-05-16T20:54:12.923Z,4.17
2023-05-16T20:56:34.106Z,3.47
2023-05-16T20:58:55.367Z,2.50
2023-05-16T21:01:17.235Z,6.13
2023-05-16T21:03:38.993Z,4.57
2023-05-16T21:06:02.003Z,5.23
2023-05-16T21:08:23.341Z,5.20
2023-05-16T21:10:44.665Z,5.33
2023-05-16T21:13:06.204Z,4.27
2023-05-16T21:15:27.821Z,4.47
2023-05-16T21:17:49.327Z,3.80
2023-05-16T21:20:10.952Z,3.50
2023-05-16T21:22:33.326Z,4.03
2023-05-16T21:24:54.539Z,8.37
2023-05-16T21:27:17.613Z,6.00
2023-05-16T21:29:38.766Z,2.93
2023-05-16T21:32:00.007Z,3.13
2023-05-16T21:34:21.346Z,4.43
2023-05-16T21:36:42.786Z,2.37
2023-05-16T21:39:05.698Z,4.20
2023-05-16T21:41:27.673Z,3.23
2023-05-16T21:43:49.516Z,3.70
2023-05-16T21:46:10.964Z,5.83
2023-05-16T21:48:32.357Z,4.77
2023-05-16T21:50:53.730Z,4.13
2023-05-16T21:53:14.899Z,4.03
2023-05-16T21:55:37.514Z,3.47
2023-05-16T21:57:58.729Z,3.03
2023-05-16T22:00:20.294Z,4.73
2023-05-16T22:02:41.474Z,3.50
2023-05-16T22:05:02.666Z,3.83
2023-05-16T22:07:28.970Z,3.27
2023-05-16T22:09:53.620Z,3.43
2023-05-16T22:12:16.581Z,2.93
2023-05-16T22:14:37.781Z,6.27
2023-05-16T22:16:58.786Z,3.47
2023-05-16T22:19:20.178Z,5.77
2023-05-16T22:21:41.654Z,6.17
2023-05-16T22:24:03.111Z,4.47
2023-05-16T22:26:24.354Z,3.33
2023-05-16T22:28:46.954Z,2.80
2023-05-16T22:31:08.461Z,3.17
2023-05-16T22:33:30.086Z,4.93
2023-05-16T22:35:51.382Z,5.90
2023-05-16T22:38:13.424Z,2.93
2023-05-16T22:40:34.553Z,5.47
2023-05-16T22:42:55.816Z,2.90
2023-05-16T22:45:18.628Z,4.03
2023-05-16T22:47:39.659Z,3.57
2023-05-16T22:50:00.864Z,3.47
2023-05-16T22:52:22.688Z,4.40
2023-05-16T22:54:43.966Z,3.30
2023-05-16T22:57:05.253Z,2.77
2023-05-16T22:59:26.578Z,6.43
2023-05-16T23:01:49.181Z,3.43
2023-05-16T23:04:10.689Z,3.00
2023-05-16T23:06:32.650Z,2.13
2023-05-16T23:08:53.843Z,3.13
2023-05-16T23:11:15.088Z,3.73
2023-05-16T23:13:36.400Z,5.17
2023-05-16T23:15:57.959Z,4.50
2023-05-16T23:18:20.876Z,4.10
2023-05-16T23:20:42.252Z,4.60
2023-05-16T23:23:03.590Z,4.67
2023-05-16T23:25:24.851Z,4.80
2023-05-16T23:27:46.240Z,2.30
2023-05-16T23:30:09.134Z,3.07
2023-05-16T23:32:31.072Z,2.57
2023-05-16T23:34:55.520Z,2.50
2023-05-16T23:37:16.628Z,4.63
2023-05-16T23:39:38.021Z,5.60
2023-05-16T23:42:01.583Z,2.90
2023-05-16T23:44:23.039Z,2.53
2023-05-16T23:46:44.290Z,3.70
2023-05-16T23:49:05.628Z,3.93
2023-05-16T23:51:35.323Z,4.37
2023-05-16T23:54:03.230Z,2.33
2023-05-16T23:56:24.501Z,3.10
2023-05-16T23:58:45.693Z,6.30
